createdAt,value
2017-07-23T00:00:02.355Z,14.34
2017-07-23T00:00:30.548Z,14.33
2017-07-23T00:00:58.754Z,14.39
2017-07-23T00:01:26.719Z,14.51
2017-07-23T00:01:54.858Z,14.33
2017-07-23T00:02:23.072Z,14.42
2017-07-23T00:02:51.064Z,14.49
2017-07-23T00:03:19.323Z,14.49
2017-07-23T00:03:47.515Z,14.45
2017-07-23T00:04:15.694Z,14.38
2017-07-23T00:04:43.863Z,14.41
2017-07-23T00:05:12.094Z,14.45
2017-07-23T00:05:40.307Z,14.45
2017-07-23T00:06:08.555Z,14.46
2017-07-23T00:06:36.755Z,14.46
2017-07-23T00:07:05.004Z,14.51
2017-07-23T00:07:33.376Z,14.49
2017-07-23T00:08:01.615Z,14.45
2017-07-23T00:08:29.776Z,14.42
2017-07-23T00:08:57.879Z,14.48
2017-07-23T00:09:25.971Z,14.42
2017-07-23T00:09:54.248Z,14.42
2017-07-23T00:10:22.492Z,14.48
2017-07-23T00:10:50.676Z,14.33
2017-07-23T00:11:18.671Z,14.41
2017-07-23T00:11:46.908Z,14.45
2017-07-23T00:12:15.064Z,14.46
2017-07-23T00:12:43.232Z,14.45
2017-07-23T00:13:11.370Z,14.46
2017-07-23T00:13:39.566Z,14.46
2017-07-23T00:14:07.773Z,14.52
2017-07-23T00:14:35.805Z,14.46
2017-07-23T00:15:04.000Z,14.46
2017-07-23T00:15:32.124Z,14.46
2017-07-23T00:16:00.342Z,14.56
2017-07-23T00:16:28.500Z,14.57
2017-07-23T00:16:56.663Z,14.52
2017-07-23T00:17:24.999Z,14.56
2017-07-23T00:17:53.148Z,14.49
2017-07-23T00:18:21.355Z,14.56
2017-07-23T00:18:49.596Z,14.57
2017-07-23T00:19:17.872Z,14.57
2017-07-23T00:19:46.010Z,14.52
2017-07-23T00:20:14.173Z,14.56
2017-07-23T00:20:42.394Z,14.51
2017-07-23T00:21:10.458Z,14.57
2017-07-23T00:21:38.495Z,14.56
2017-07-23T00:22:06.605Z,14.53
2017-07-23T00:22:34.773Z,14.63
2017-07-23T00:23:02.970Z,14.67
2017-07-23T00:23:31.110Z,14.69
2017-07-23T00:23:59.179Z,14.66
2017-07-23T00:24:27.378Z,14.69
2017-07-23T00:24:55.645Z,14.67
2017-07-23T00:25:23.838Z,14.64
2017-07-23T00:25:51.999Z,14.67
2017-07-23T00:26:20.255Z,14.6
2017-07-23T00:26:48.524Z,14.63
2017-07-23T00:27:16.788Z,14.6
2017-07-23T00:27:44.964Z,14.61
2017-07-23T00:28:13.204Z,14.6
2017-07-23T00:28:41.335Z,14.51
2017-07-23T00:29:09.568Z,14.49
2017-07-23T00:29:37.798Z,14.52
2017-07-23T00:30:06.050Z,14.52
2017-07-23T00:30:34.246Z,14.51
2017-07-23T00:31:02.509Z,14.44
2017-07-23T00:31:30.490Z,14.45
2017-07-23T00:31:58.586Z,14.49
2017-07-23T00:32:27.021Z,14.49
2017-07-23T00:32:55.031Z,14.46
2017-07-23T00:33:23.085Z,14.46
2017-07-23T00:33:51.219Z,14.45
2017-07-23T00:34:19.417Z,14.46
2017-07-23T00:34:47.714Z,14.45
2017-07-23T00:35:15.850Z,14.44
2017-07-23T00:35:43.997Z,14.39
2017-07-23T00:36:12.224Z,14.44
2017-07-23T00:36:40.239Z,14.39
2017-07-23T00:37:08.412Z,14.48
2017-07-23T00:37:36.742Z,14.44
2017-07-23T00:38:04.956Z,14.44
2017-07-23T00:38:33.044Z,14.38
2017-07-23T00:39:01.269Z,14.34
2017-07-23T00:39:29.449Z,14.38
2017-07-23T00:39:57.592Z,14.38
2017-07-23T00:40:25.802Z,14.36
2017-07-23T00:40:54.049Z,14.33
2017-07-23T00:41:22.374Z,14.38
2017-07-23T00:41:50.467Z,14.33
2017-07-23T00:42:18.688Z,14.31
2017-07-23T00:42:46.984Z,14.38
2017-07-23T00:43:15.012Z,14.33
2017-07-23T00:43:43.006Z,14.34
2017-07-23T00:44:11.217Z,14.36
2017-07-23T00:44:39.443Z,14.31
2017-07-23T00:45:07.359Z,14.2
2017-07-23T00:45:35.479Z,14.3
2017-07-23T00:46:03.719Z,14.3
2017-07-23T00:46:31.717Z,14.26
2017-07-23T00:46:59.941Z,14.28
2017-07-23T00:47:28.125Z,14.21
2017-07-23T00:47:56.448Z,14.24
2017-07-23T00:48:24.679Z,14.26
2017-07-23T00:48:52.858Z,14.28
2017-07-23T00:49:21.123Z,14.2
2017-07-23T00:49:49.230Z,14.3
2017-07-23T00:50:17.383Z,14.2
2017-07-23T00:50:45.416Z,14.21
2017-07-23T00:51:13.733Z,14.23
2017-07-23T00:51:41.829Z,14.28
2017-07-23T00:52:09.917Z,14.27
2017-07-23T00:52:38.108Z,14.3
2017-07-23T00:53:06.272Z,14.27
2017-07-23T00:53:34.363Z,14.28
2017-07-23T00:54:02.556Z,14.28
2017-07-23T00:54:30.792Z,14.23
2017-07-23T00:54:58.993Z,14.21
2017-07-23T00:55:27.016Z,14.21
2017-07-23T00:55:55.287Z,14.21
2017-07-23T00:56:23.456Z,14.23
2017-07-23T00:56:51.721Z,14.27
2017-07-23T00:57:19.943Z,14.27
2017-07-23T00:57:47.919Z,14.24
2017-07-23T00:58:16.068Z,14.23
2017-07-23T00:58:44.317Z,14.28
2017-07-23T00:59:12.531Z,14.24
2017-07-23T00:59:40.736Z,14.24
2017-07-23T01:00:08.981Z,14.28
2017-07-23T01:00:37.213Z,14.28
2017-07-23T01:01:05.430Z,14.31
2017-07-23T01:01:33.637Z,14.27
2017-07-23T01:02:01.814Z,14.21
2017-07-23T01:02:30.031Z,14.31
2017-07-23T01:02:58.385Z,14.33
2017-07-23T01:03:26.603Z,14.3
2017-07-23T01:03:54.863Z,14.34
2017-07-23T01:04:23.011Z,14.36
2017-07-23T01:04:51.201Z,14.28
2017-07-23T01:05:19.251Z,14.38
2017-07-23T01:05:47.455Z,14.31
2017-07-23T01:06:15.660Z,14.3
2017-07-23T01:06:43.793Z,14.34
2017-07-23T01:07:12.059Z,14.34
2017-07-23T01:07:40.228Z,14.3
2017-07-23T01:08:08.412Z,14.31
2017-07-23T01:08:36.546Z,14.31
2017-07-23T01:09:04.773Z,14.33
2017-07-23T01:09:32.910Z,14.36
2017-07-23T01:10:00.949Z,14.34
2017-07-23T01:10:29.138Z,14.41
2017-07-23T01:10:57.388Z,14.34
2017-07-23T01:11:25.584Z,14.34
2017-07-23T01:11:53.624Z,14.38
2017-07-23T01:12:21.865Z,14.33
2017-07-23T01:12:50.147Z,14.38
2017-07-23T01:13:18.339Z,14.41
2017-07-23T01:13:46.488Z,14.33
2017-07-23T01:14:14.649Z,14.51
2017-07-23T01:14:42.852Z,14.42
2017-07-23T01:15:10.993Z,14.48
2017-07-23T01:15:39.102Z,14.51
2017-07-23T01:16:07.295Z,14.49
2017-07-23T01:16:35.347Z,14.49
2017-07-23T01:17:03.556Z,14.46
2017-07-23T01:17:31.633Z,14.48
2017-07-23T01:18:00.067Z,14.46
2017-07-23T01:18:28.203Z,14.48
2017-07-23T01:18:56.264Z,14.42
2017-07-23T01:19:24.482Z,14.51
2017-07-23T01:19:52.722Z,14.45
2017-07-23T01:20:20.911Z,14.45
2017-07-23T01:20:49.099Z,14.51
2017-07-23T01:21:17.366Z,14.45
2017-07-23T01:21:45.630Z,14.48
2017-07-23T01:22:13.853Z,14.45
2017-07-23T01:22:42.005Z,14.46
2017-07-23T01:23:10.267Z,14.44
2017-07-23T01:23:38.287Z,14.48
2017-07-23T01:24:06.479Z,14.48
2017-07-23T01:24:34.580Z,14.42
2017-07-23T01:25:02.669Z,14.45
2017-07-23T01:25:30.931Z,14.46
2017-07-23T01:25:59.053Z,14.48
2017-07-23T01:26:27.308Z,14.45
2017-07-23T01:26:55.536Z,14.49
2017-07-23T01:27:23.728Z,14.46
2017-07-23T01:27:51.844Z,14.46
2017-07-23T01:28:20.175Z,14.45
2017-07-23T01:28:48.090Z,14.51
2017-07-23T01:29:16.376Z,14.45
2017-07-23T01:29:44.516Z,14.52
2017-07-23T01:30:12.772Z,14.48
2017-07-23T01:30:40.941Z,14.56
2017-07-23T01:31:08.973Z,14.56
2017-07-23T01:31:37.208Z,14.52
2017-07-23T01:32:05.437Z,14.53
2017-07-23T01:32:33.477Z,14.53
2017-07-23T01:33:01.707Z,14.59
2017-07-23T01:33:29.939Z,14.56
2017-07-23T01:33:58.071Z,14.57
2017-07-23T01:34:26.259Z,14.57
2017-07-23T01:34:54.368Z,14.6
2017-07-23T01:35:22.615Z,14.59
2017-07-23T01:35:50.683Z,14.57
2017-07-23T01:36:18.804Z,14.57
2017-07-23T01:36:46.941Z,14.56
2017-07-23T01:37:15.111Z,14.63
2017-07-23T01:37:43.292Z,14.59
2017-07-23T01:38:11.541Z,14.64
2017-07-23T01:38:39.684Z,14.63
2017-07-23T01:39:07.795Z,14.66
2017-07-23T01:39:36.010Z,14.57
2017-07-23T01:40:04.228Z,14.61
2017-07-23T01:40:32.428Z,14.61
2017-07-23T01:41:00.560Z,14.61
2017-07-23T01:41:28.780Z,14.63
2017-07-23T01:41:57.005Z,14.59
2017-07-23T01:42:25.030Z,14.66
2017-07-23T01:42:53.226Z,14.64
2017-07-23T01:43:21.551Z,14.57
2017-07-23T01:43:49.646Z,14.59
2017-07-23T01:44:17.874Z,14.6
2017-07-23T01:44:46.129Z,14.6
2017-07-23T01:45:14.262Z,14.61
2017-07-23T01:45:42.580Z,14.6
2017-07-23T01:46:10.650Z,14.63
2017-07-23T01:46:38.885Z,14.6
2017-07-23T01:47:06.972Z,14.6
2017-07-23T01:47:35.112Z,14.59
2017-07-23T01:48:03.140Z,14.63
2017-07-23T01:48:31.364Z,14.6
2017-07-23T01:48:59.536Z,14.67
2017-07-23T01:49:27.672Z,14.61
2017-07-23T01:49:55.857Z,14.61
2017-07-23T01:50:23.886Z,14.66
2017-07-23T01:50:52.016Z,14.61
2017-07-23T01:51:20.224Z,14.63
2017-07-23T01:51:48.273Z,14.64
2017-07-23T01:52:16.378Z,14.61
2017-07-23T01:52:44.558Z,14.61
2017-07-23T01:53:12.887Z,14.61
2017-07-23T01:53:41.013Z,14.56
2017-07-23T01:54:09.145Z,14.64
2017-07-23T01:54:37.263Z,14.67
2017-07-23T01:55:05.398Z,14.61
2017-07-23T01:55:33.532Z,14.6
2017-07-23T01:56:01.760Z,14.53
2017-07-23T01:56:29.804Z,14.63
2017-07-23T01:56:57.840Z,14.61
2017-07-23T01:57:25.970Z,14.63
2017-07-23T01:57:54.018Z,14.63
2017-07-23T01:58:22.488Z,14.69
2017-07-23T01:58:50.672Z,14.61
2017-07-23T01:59:18.788Z,14.66
2017-07-23T01:59:47.009Z,14.64
2017-07-23T02:00:15.145Z,14.63
2017-07-23T02:00:43.166Z,14.61
2017-07-23T02:01:11.251Z,14.69
2017-07-23T02:01:39.484Z,14.67
2017-07-23T02:02:07.683Z,14.64
2017-07-23T02:02:35.665Z,14.63
2017-07-23T02:03:03.884Z,14.6
2017-07-23T02:03:32.145Z,14.63
2017-07-23T02:04:00.360Z,14.61
2017-07-23T02:04:28.394Z,14.6
2017-07-23T02:04:56.304Z,14.59
2017-07-23T02:05:24.349Z,14.49
2017-07-23T02:05:52.481Z,14.49
2017-07-23T02:06:20.526Z,14.63
2017-07-23T02:06:48.741Z,14.52
2017-07-23T02:07:16.953Z,14.52
2017-07-23T02:07:45.196Z,14.51
2017-07-23T02:08:13.379Z,14.57
2017-07-23T02:08:41.564Z,14.53
2017-07-23T02:09:09.720Z,14.53
2017-07-23T02:09:37.907Z,14.44
2017-07-23T02:10:06.074Z,14.51
2017-07-23T02:10:34.190Z,14.46
2017-07-23T02:11:02.124Z,14.45
2017-07-23T02:11:30.347Z,14.48
2017-07-23T02:11:58.360Z,14.51
2017-07-23T02:12:26.503Z,14.48
2017-07-23T02:12:54.674Z,14.48
2017-07-23T02:13:22.923Z,14.45
2017-07-23T02:13:51.193Z,14.48
2017-07-23T02:14:19.434Z,14.44
2017-07-23T02:14:47.734Z,14.46
2017-07-23T02:15:15.935Z,14.48
2017-07-23T02:15:44.025Z,14.48
2017-07-23T02:16:12.228Z,14.46
2017-07-23T02:16:40.489Z,14.51
2017-07-23T02:17:08.559Z,14.38
2017-07-23T02:17:36.668Z,14.33
2017-07-23T02:18:04.807Z,14.33
2017-07-23T02:18:33.195Z,14.34
2017-07-23T02:19:01.327Z,14.33
2017-07-23T02:19:29.558Z,14.34
2017-07-23T02:19:57.662Z,14.34
2017-07-23T02:20:25.808Z,14.31
2017-07-23T02:20:53.881Z,14.3
2017-07-23T02:21:22.056Z,14.24
2017-07-23T02:21:50.182Z,14.26
2017-07-23T02:22:18.235Z,14.24
2017-07-23T02:22:46.465Z,14.16
2017-07-23T02:23:14.700Z,14.13
2017-07-23T02:23:43.011Z,14.16
2017-07-23T02:24:11.185Z,14.2
2017-07-23T02:24:39.302Z,14.12
2017-07-23T02:25:07.511Z,14.06
2017-07-23T02:25:35.734Z,14.08
2017-07-23T02:26:03.939Z,14.08
2017-07-23T02:26:31.880Z,14.09
2017-07-23T02:27:00.081Z,14.11
2017-07-23T02:27:28.182Z,14.12
2017-07-23T02:27:56.327Z,14.08
2017-07-23T02:28:24.433Z,13.99
2017-07-23T02:28:52.666Z,14.08
2017-07-23T02:29:20.922Z,14.03
2017-07-23T02:29:49.053Z,14.03
2017-07-23T02:30:17.199Z,14.01
2017-07-23T02:30:45.201Z,14.05
2017-07-23T02:31:13.364Z,14.06
2017-07-23T02:31:41.581Z,14.03
2017-07-23T02:32:09.632Z,13.99
2017-07-23T02:32:37.834Z,13.93
2017-07-23T02:33:06.017Z,14.02
2017-07-23T02:33:34.098Z,13.99
2017-07-23T02:34:02.319Z,13.97
2017-07-23T02:34:30.439Z,13.99
2017-07-23T02:34:58.590Z,13.95
2017-07-23T02:35:26.724Z,13.97
2017-07-23T02:35:54.988Z,13.99
2017-07-23T02:36:23.024Z,13.97
2017-07-23T02:36:51.120Z,13.95
2017-07-23T02:37:19.348Z,13.99
2017-07-23T02:37:47.548Z,13.93
2017-07-23T02:38:15.770Z,13.97
2017-07-23T02:38:43.961Z,13.95
2017-07-23T02:39:12.188Z,13.99
2017-07-23T02:39:40.284Z,14.02
2017-07-23T02:40:08.415Z,13.97
2017-07-23T02:40:36.570Z,13.97
2017-07-23T02:41:04.654Z,13.95
2017-07-23T02:41:32.829Z,14.01
2017-07-23T02:42:00.965Z,13.95
2017-07-23T02:42:29.175Z,14.08
2017-07-23T02:42:57.217Z,14.03
2017-07-23T02:43:25.397Z,13.95
2017-07-23T02:43:53.863Z,13.99
2017-07-23T02:44:22.031Z,14.09
2017-07-23T02:44:50.176Z,14.05
2017-07-23T02:45:18.380Z,14.11
2017-07-23T02:45:46.582Z,14.11
2017-07-23T02:46:14.814Z,14.13
2017-07-23T02:46:42.962Z,14.09
2017-07-23T02:47:11.161Z,14.03
2017-07-23T02:47:39.247Z,14.08
2017-07-23T02:48:07.335Z,14.08
2017-07-23T02:48:35.321Z,14.08
2017-07-23T02:49:03.618Z,14.12
2017-07-23T02:49:31.690Z,14.11
2017-07-23T02:49:59.895Z,14.08
2017-07-23T02:50:28.114Z,14.2
2017-07-23T02:50:56.242Z,14.19
2017-07-23T02:51:24.491Z,14.23
2017-07-23T02:51:52.710Z,14.2
2017-07-23T02:52:20.985Z,14.19
2017-07-23T02:52:49.055Z,14.16
2017-07-23T02:53:17.272Z,14.16
2017-07-23T02:53:45.550Z,14.2
2017-07-23T02:54:13.764Z,14.16
2017-07-23T02:54:41.847Z,14.2
2017-07-23T02:55:09.988Z,14.26
2017-07-23T02:55:38.066Z,14.27
2017-07-23T02:56:06.134Z,14.27
2017-07-23T02:56:34.255Z,14.28
2017-07-23T02:57:02.428Z,14.23
2017-07-23T02:57:30.582Z,14.27
2017-07-23T02:57:58.754Z,14.28
2017-07-23T02:58:26.880Z,14.36
2017-07-23T02:58:55.131Z,14.3
2017-07-23T02:59:23.441Z,14.3
2017-07-23T02:59:51.462Z,14.3
2017-07-23T03:00:19.575Z,14.28
2017-07-23T03:00:47.627Z,14.3
2017-07-23T03:01:15.756Z,14.31
2017-07-23T03:01:44.048Z,14.3
2017-07-23T03:02:12.272Z,14.28
2017-07-23T03:02:40.457Z,14.36
2017-07-23T03:03:08.568Z,14.2
2017-07-23T03:03:36.857Z,14.36
2017-07-23T03:04:05.141Z,14.3
2017-07-23T03:04:33.401Z,14.34
2017-07-23T03:05:01.636Z,14.31
2017-07-23T03:05:29.813Z,14.31
2017-07-23T03:05:57.951Z,14.34
2017-07-23T03:06:26.168Z,14.3
2017-07-23T03:06:54.293Z,14.28
2017-07-23T03:07:22.508Z,14.34
2017-07-23T03:07:50.761Z,14.31
2017-07-23T03:08:18.961Z,14.39
2017-07-23T03:08:47.211Z,14.34
2017-07-23T03:09:15.666Z,14.36
2017-07-23T03:09:43.737Z,14.31
2017-07-23T03:10:11.877Z,14.3
2017-07-23T03:10:40.076Z,14.31
2017-07-23T03:11:08.185Z,14.3
2017-07-23T03:11:36.414Z,14.28
2017-07-23T03:12:04.480Z,14.31
2017-07-23T03:12:32.693Z,14.34
2017-07-23T03:13:00.855Z,14.3
2017-07-23T03:13:29.037Z,14.34
2017-07-23T03:13:57.222Z,14.36
2017-07-23T03:14:25.481Z,14.36
2017-07-23T03:14:53.518Z,14.33
2017-07-23T03:15:21.600Z,14.39
2017-07-23T03:15:49.771Z,14.41
2017-07-23T03:16:18.016Z,14.46
2017-07-23T03:16:46.129Z,14.46
2017-07-23T03:17:14.349Z,14.39
2017-07-23T03:17:42.575Z,14.49
2017-07-23T03:18:10.826Z,14.48
2017-07-23T03:18:38.960Z,14.42
2017-07-23T03:19:07.223Z,14.41
2017-07-23T03:19:35.351Z,14.49
2017-07-23T03:20:03.523Z,14.49
2017-07-23T03:20:31.668Z,14.48
2017-07-23T03:20:59.843Z,14.45
2017-07-23T03:21:27.983Z,14.46
2017-07-23T03:21:56.239Z,14.48
2017-07-23T03:22:24.376Z,14.46
2017-07-23T03:22:52.520Z,14.56
2017-07-23T03:23:20.727Z,14.51
2017-07-23T03:23:48.868Z,14.59
2017-07-23T03:24:17.227Z,14.53
2017-07-23T03:24:45.220Z,14.63
2017-07-23T03:25:13.290Z,14.6
2017-07-23T03:25:41.375Z,14.63
2017-07-23T03:26:09.594Z,14.63
2017-07-23T03:26:37.823Z,14.67
2017-07-23T03:27:05.944Z,14.59
2017-07-23T03:27:33.962Z,14.6
2017-07-23T03:28:02.067Z,14.59
2017-07-23T03:28:30.237Z,14.67
2017-07-23T03:28:58.332Z,14.63
2017-07-23T03:29:26.452Z,14.63
2017-07-23T03:29:54.582Z,14.64
2017-07-23T03:30:22.732Z,14.6
2017-07-23T03:30:50.899Z,14.63
2017-07-23T03:31:18.918Z,14.59
2017-07-23T03:31:47.046Z,14.67
2017-07-23T03:32:15.265Z,14.6
2017-07-23T03:32:43.500Z,14.63
2017-07-23T03:33:11.494Z,14.63
2017-07-23T03:33:39.495Z,14.63
2017-07-23T03:34:07.671Z,14.63
2017-07-23T03:34:36.027Z,14.61
2017-07-23T03:35:04.245Z,14.59
2017-07-23T03:35:32.476Z,14.67
2017-07-23T03:36:00.497Z,14.64
2017-07-23T03:36:28.725Z,14.66
2017-07-23T03:36:56.963Z,14.66
2017-07-23T03:37:25.221Z,14.69
2017-07-23T03:37:53.427Z,14.69
2017-07-23T03:38:21.537Z,14.66
2017-07-23T03:38:49.770Z,14.75
2017-07-23T03:39:18.095Z,14.74
2017-07-23T03:39:46.217Z,14.8
2017-07-23T03:40:14.434Z,14.71
2017-07-23T03:40:42.698Z,14.75
2017-07-23T03:41:10.836Z,14.77
2017-07-23T03:41:39.042Z,14.75
2017-07-23T03:42:07.341Z,14.75
2017-07-23T03:42:35.525Z,14.71
2017-07-23T03:43:03.719Z,14.79
2017-07-23T03:43:31.883Z,14.83
2017-07-23T03:44:00.110Z,14.79
2017-07-23T03:44:28.352Z,14.77
2017-07-23T03:44:56.557Z,14.77
2017-07-23T03:45:24.698Z,14.79
2017-07-23T03:45:52.753Z,14.79
2017-07-23T03:46:20.997Z,14.79
2017-07-23T03:46:49.208Z,14.71
2017-07-23T03:47:17.281Z,14.77
2017-07-23T03:47:45.273Z,14.74
2017-07-23T03:48:13.541Z,14.75
2017-07-23T03:48:41.588Z,14.82
2017-07-23T03:49:09.672Z,14.82
2017-07-23T03:49:37.897Z,14.82
2017-07-23T03:50:06.071Z,14.83
2017-07-23T03:50:34.188Z,14.85
2017-07-23T03:51:02.377Z,14.85
2017-07-23T03:51:30.551Z,14.82
2017-07-23T03:51:58.631Z,14.8
2017-07-23T03:52:26.641Z,14.8
2017-07-23T03:52:54.862Z,14.86
2017-07-23T03:53:22.975Z,14.8
2017-07-23T03:53:51.062Z,14.79
2017-07-23T03:54:19.347Z,14.85
2017-07-23T03:54:47.719Z,14.8
2017-07-23T03:55:15.816Z,14.9
2017-07-23T03:55:44.022Z,14.9
2017-07-23T03:56:12.223Z,14.89
2017-07-23T03:56:40.443Z,14.83
2017-07-23T03:57:08.669Z,14.87
2017-07-23T03:57:36.695Z,14.93
2017-07-23T03:58:04.924Z,14.94
2017-07-23T03:58:33.036Z,14.86
2017-07-23T03:59:01.195Z,14.94
2017-07-23T03:59:29.551Z,14.95
2017-07-23T03:59:57.712Z,14.95
2017-07-23T04:00:25.948Z,14.87
2017-07-23T04:00:54.192Z,14.97
2017-07-23T04:01:22.393Z,14.94
2017-07-23T04:01:50.629Z,14.85
2017-07-23T04:02:18.880Z,15.01
2017-07-23T04:02:46.929Z,14.89
2017-07-23T04:03:15.104Z,14.95
2017-07-23T04:03:43.258Z,15
2017-07-23T04:04:11.346Z,14.93
2017-07-23T04:04:39.527Z,14.97
2017-07-23T04:05:07.797Z,14.98
2017-07-23T04:05:36.003Z,15
2017-07-23T04:06:03.993Z,14.98
2017-07-23T04:06:32.206Z,15
2017-07-23T04:07:00.194Z,14.98
2017-07-23T04:07:28.454Z,15.02
2017-07-23T04:07:56.660Z,15
2017-07-23T04:08:24.842Z,15.02
2017-07-23T04:08:52.940Z,15
2017-07-23T04:09:21.012Z,14.98
2017-07-23T04:09:49.365Z,15
2017-07-23T04:10:17.459Z,15.01
2017-07-23T04:10:45.464Z,14.98
2017-07-23T04:11:13.549Z,14.98
2017-07-23T04:11:41.652Z,14.95
2017-07-23T04:12:09.718Z,15
2017-07-23T04:12:37.868Z,14.97
2017-07-23T04:13:05.799Z,15
2017-07-23T04:13:34.315Z,14.93
2017-07-23T04:14:02.353Z,14.89
2017-07-23T04:14:30.466Z,15
2017-07-23T04:14:58.586Z,15
2017-07-23T04:15:26.718Z,15
2017-07-23T04:15:54.879Z,14.95
2017-07-23T04:16:22.957Z,15.01
2017-07-23T04:16:51.124Z,14.97
2017-07-23T04:17:19.300Z,15.01
2017-07-23T04:17:47.535Z,14.98
2017-07-23T04:18:15.621Z,14.97
2017-07-23T04:18:43.661Z,15.07
2017-07-23T04:19:11.933Z,14.98
2017-07-23T04:19:40.373Z,15.04
2017-07-23T04:20:08.645Z,15.04
2017-07-23T04:20:36.893Z,15.1
2017-07-23T04:21:04.932Z,15.07
2017-07-23T04:21:33.093Z,15.1
2017-07-23T04:22:01.259Z,15.04
2017-07-23T04:22:29.466Z,15.04
2017-07-23T04:22:57.468Z,15.02
2017-07-23T04:23:25.677Z,15.1
2017-07-23T04:23:53.826Z,15.04
2017-07-23T04:24:21.992Z,14.98
2017-07-23T04:24:50.357Z,15.05
2017-07-23T04:25:18.574Z,15.05
2017-07-23T04:25:46.683Z,15.05
2017-07-23T04:26:14.895Z,15.01
2017-07-23T04:26:43.087Z,15.04
2017-07-23T04:27:11.397Z,15.05
2017-07-23T04:27:39.582Z,15.01
2017-07-23T04:28:07.612Z,15.04
2017-07-23T04:28:35.779Z,15.07
2017-07-23T04:29:03.981Z,15.07
2017-07-23T04:29:32.199Z,15.04
2017-07-23T04:30:00.566Z,15.05
2017-07-23T04:30:28.783Z,15
2017-07-23T04:30:56.810Z,15.01
2017-07-23T04:31:24.946Z,15.02
2017-07-23T04:31:53.157Z,15.01
2017-07-23T04:32:21.233Z,15.07
2017-07-23T04:32:49.437Z,15.05
2017-07-23T04:33:17.652Z,15.05
2017-07-23T04:33:45.855Z,15.01
2017-07-23T04:34:13.924Z,14.98
2017-07-23T04:34:41.986Z,15.02
2017-07-23T04:35:10.467Z,15.02
2017-07-23T04:35:38.606Z,15.07
2017-07-23T04:36:06.836Z,14.98
2017-07-23T04:36:35.011Z,15.01
2017-07-23T04:37:03.043Z,15.05
2017-07-23T04:37:31.333Z,15.01
2017-07-23T04:37:59.460Z,15.05
2017-07-23T04:38:27.467Z,14.98
2017-07-23T04:38:55.425Z,15.04
2017-07-23T04:39:23.639Z,14.98
2017-07-23T04:39:51.846Z,15.04
2017-07-23T04:40:20.301Z,15.01
2017-07-23T04:40:48.486Z,15.01
2017-07-23T04:41:16.729Z,15.01
2017-07-23T04:41:44.659Z,14.98
2017-07-23T04:42:12.860Z,15
2017-07-23T04:42:40.990Z,14.95
2017-07-23T04:43:09.074Z,14.98
2017-07-23T04:43:37.314Z,14.95
2017-07-23T04:44:05.428Z,14.97
2017-07-23T04:44:33.556Z,14.97
2017-07-23T04:45:01.812Z,14.98
2017-07-23T04:45:30.067Z,15
2017-07-23T04:45:58.293Z,15.01
2017-07-23T04:46:26.481Z,15
2017-07-23T04:46:54.698Z,14.93
2017-07-23T04:47:22.847Z,14.94
2017-07-23T04:47:50.924Z,15.02
2017-07-23T04:48:19.028Z,15
2017-07-23T04:48:47.295Z,15.01
2017-07-23T04:49:15.378Z,15.01
2017-07-23T04:49:43.610Z,14.98
2017-07-23T04:50:11.959Z,14.98
2017-07-23T04:50:40.197Z,14.98
2017-07-23T04:51:08.428Z,14.89
2017-07-23T04:51:36.582Z,14.98
2017-07-23T04:52:04.847Z,14.98
2017-07-23T04:52:33.097Z,14.9
2017-07-23T04:53:01.256Z,14.97
2017-07-23T04:53:29.492Z,15
2017-07-23T04:53:57.714Z,15.01
2017-07-23T04:54:25.757Z,14.95
2017-07-23T04:54:53.985Z,14.98
2017-07-23T04:55:22.202Z,14.98
2017-07-23T04:55:50.426Z,15.01
2017-07-23T04:56:18.592Z,14.93
2017-07-23T04:56:46.825Z,15.01
2017-07-23T04:57:15.082Z,15.01
2017-07-23T04:57:43.347Z,15
2017-07-23T04:58:11.598Z,15
2017-07-23T04:58:39.703Z,15
2017-07-23T04:59:07.878Z,14.98
2017-07-23T04:59:35.938Z,14.95
2017-07-23T05:00:04.557Z,15.01
2017-07-23T05:00:32.759Z,14.95
2017-07-23T05:01:00.849Z,14.98
2017-07-23T05:01:28.958Z,15
2017-07-23T05:01:57.042Z,14.86
2017-07-23T05:02:25.217Z,14.93
2017-07-23T05:02:53.357Z,14.89
2017-07-23T05:03:21.502Z,14.9
2017-07-23T05:03:49.526Z,14.89
2017-07-23T05:04:17.725Z,14.93
2017-07-23T05:04:45.872Z,14.93
2017-07-23T05:05:14.136Z,14.97
2017-07-23T05:05:42.224Z,14.95
2017-07-23T05:06:10.373Z,15
2017-07-23T05:06:38.462Z,14.97
2017-07-23T05:07:06.727Z,14.98
2017-07-23T05:07:34.803Z,15
2017-07-23T05:08:02.902Z,14.98
2017-07-23T05:08:31.069Z,14.87
2017-07-23T05:08:59.193Z,14.9
2017-07-23T05:09:27.379Z,14.95
2017-07-23T05:09:55.494Z,14.9
2017-07-23T05:10:23.633Z,14.97
2017-07-23T05:10:51.843Z,14.98
2017-07-23T05:11:20.053Z,14.97
2017-07-23T05:11:48.394Z,14.97
2017-07-23T05:12:16.612Z,14.94
2017-07-23T05:12:44.849Z,14.93
2017-07-23T05:13:13.099Z,14.93
2017-07-23T05:13:41.296Z,14.9
2017-07-23T05:14:09.395Z,14.98
2017-07-23T05:14:37.512Z,14.97
2017-07-23T05:15:05.581Z,14.98
2017-07-23T05:15:33.980Z,14.97
2017-07-23T05:16:02.197Z,14.98
2017-07-23T05:16:30.396Z,14.97
2017-07-23T05:16:58.535Z,14.95
2017-07-23T05:17:26.644Z,14.95
2017-07-23T05:17:54.801Z,14.94
2017-07-23T05:18:23.094Z,14.97
2017-07-23T05:18:51.246Z,14.94
2017-07-23T05:19:19.286Z,14.94
2017-07-23T05:19:47.395Z,14.9
2017-07-23T05:20:15.678Z,14.93
2017-07-23T05:20:43.897Z,15.05
2017-07-23T05:21:12.068Z,14.97
2017-07-23T05:21:40.215Z,14.95
2017-07-23T05:22:08.480Z,14.9
2017-07-23T05:22:36.764Z,14.95
2017-07-23T05:23:04.655Z,14.93
2017-07-23T05:23:32.725Z,14.95
2017-07-23T05:24:00.927Z,14.95
2017-07-23T05:24:28.880Z,14.9
2017-07-23T05:24:56.964Z,14.93
2017-07-23T05:25:25.236Z,15
2017-07-23T05:25:53.349Z,14.9
2017-07-23T05:26:21.458Z,14.89
2017-07-23T05:26:49.729Z,14.85
2017-07-23T05:27:17.737Z,14.86
2017-07-23T05:27:45.897Z,14.93
2017-07-23T05:28:14.108Z,15
2017-07-23T05:28:42.377Z,14.9
2017-07-23T05:29:10.558Z,14.93
2017-07-23T05:29:38.678Z,14.93
2017-07-23T05:30:06.841Z,14.9
2017-07-23T05:30:35.158Z,14.86
2017-07-23T05:31:03.285Z,14.86
2017-07-23T05:31:31.463Z,14.94
2017-07-23T05:31:59.655Z,14.86
2017-07-23T05:32:27.809Z,14.97
2017-07-23T05:32:56.061Z,14.9
2017-07-23T05:33:24.208Z,14.95
2017-07-23T05:33:52.411Z,14.95
2017-07-23T05:34:20.695Z,14.98
2017-07-23T05:34:48.827Z,14.98
2017-07-23T05:35:17.064Z,14.93
2017-07-23T05:35:45.259Z,14.97
2017-07-23T05:36:13.414Z,14.97
2017-07-23T05:36:41.443Z,14.9
2017-07-23T05:37:09.446Z,14.94
2017-07-23T05:37:37.675Z,14.93
2017-07-23T05:38:05.677Z,14.97
2017-07-23T05:38:33.911Z,14.97
2017-07-23T05:39:02.091Z,14.98
2017-07-23T05:39:30.285Z,14.95
2017-07-23T05:39:58.482Z,14.93
2017-07-23T05:40:26.780Z,15
2017-07-23T05:40:54.964Z,14.95
2017-07-23T05:41:23.244Z,14.97
2017-07-23T05:41:51.455Z,14.95
2017-07-23T05:42:19.637Z,15
2017-07-23T05:42:48.169Z,15
2017-07-23T05:43:16.293Z,14.98
2017-07-23T05:43:44.338Z,14.86
2017-07-23T05:44:12.578Z,14.93
2017-07-23T05:44:40.829Z,14.95
2017-07-23T05:45:09.136Z,14.95
2017-07-23T05:45:37.661Z,14.95
2017-07-23T05:46:05.831Z,14.94
2017-07-23T05:46:33.977Z,14.95
2017-07-23T05:47:02.331Z,15.01
2017-07-23T05:47:30.573Z,15
2017-07-23T05:47:58.781Z,15
2017-07-23T05:48:26.937Z,15.01
2017-07-23T05:48:55.204Z,14.97
2017-07-23T05:49:23.441Z,15.01
2017-07-23T05:49:51.456Z,14.98
2017-07-23T05:50:19.539Z,14.98
2017-07-23T05:50:47.869Z,15.07
2017-07-23T05:51:15.990Z,15.12
2017-07-23T05:51:44.122Z,15.04
2017-07-23T05:52:12.331Z,15.04
2017-07-23T05:52:40.478Z,15.07
2017-07-23T05:53:08.601Z,15
2017-07-23T05:53:36.722Z,15
2017-07-23T05:54:04.744Z,15.04
2017-07-23T05:54:33.067Z,14.98
2017-07-23T05:55:01.297Z,15.1
2017-07-23T05:55:29.543Z,15.02
2017-07-23T05:55:57.609Z,15.04
2017-07-23T05:56:25.549Z,15.05
2017-07-23T05:56:53.767Z,15.05
2017-07-23T05:57:22.015Z,15.04
2017-07-23T05:57:50.058Z,15.07
2017-07-23T05:58:18.290Z,15.04
2017-07-23T05:58:46.422Z,15.08
2017-07-23T05:59:14.553Z,15.08
2017-07-23T05:59:42.780Z,15.12
2017-07-23T06:00:10.828Z,15.04
2017-07-23T06:00:39.111Z,15
2017-07-23T06:01:07.279Z,15.04
2017-07-23T06:01:35.459Z,15.01
2017-07-23T06:02:03.497Z,15
2017-07-23T06:02:31.659Z,14.98
2017-07-23T06:02:59.818Z,14.95
2017-07-23T06:03:27.998Z,15.01
2017-07-23T06:03:56.062Z,14.95
2017-07-23T06:04:24.081Z,14.86
2017-07-23T06:04:52.201Z,14.95
2017-07-23T06:05:20.406Z,14.94